createdAt,value
2022-11-08T00:00:37.098Z,0.60
2022-11-08T00:01:40.881Z,0.47
2022-11-08T00:02:42.673Z,0.60
2022-11-08T00:03:44.569Z,1.13
2022-11-08T00:04:46.327Z,0.88
2022-11-08T00:06:06.943Z,0.60
2022-11-08T00:07:29.686Z,0.73
2022-11-08T00:08:50.361Z,1.20
2022-11-08T00:10:10.783Z,0.70
2022-11-08T00:11:31.345Z,0.50
2022-11-08T00:12:51.920Z,0.68
2022-11-08T00:13:59.936Z,0.73
2022-11-08T00:15:01.931Z,0.60
2022-11-08T00:16:03.793Z,0.77
2022-11-08T00:17:05.481Z,0.50
2022-11-08T00:18:07.887Z,0.70
2022-11-08T00:19:09.541Z,0.50
2022-11-08T00:20:11.406Z,0.53
2022-11-08T00:21:13.125Z,0.60
2022-11-08T00:22:15.666Z,0.63
2022-11-08T00:23:17.362Z,0.73
2022-11-08T00:24:19.016Z,0.55
2022-11-08T00:25:20.757Z,0.60
2022-11-08T00:26:24.990Z,0.65
2022-11-08T00:27:27.424Z,0.43
2022-11-08T00:28:29.140Z,0.60
2022-11-08T00:29:31.138Z,0.68
2022-11-08T00:30:33.008Z,0.80
2022-11-08T00:31:34.767Z,0.98
2022-11-08T00:32:36.419Z,0.70
2022-11-08T00:33:38.268Z,0.50
2022-11-08T00:34:40.139Z,0.70
2022-11-08T00:35:41.894Z,0.70
2022-11-08T00:36:43.545Z,0.65
2022-11-08T00:37:45.223Z,0.80
2022-11-08T00:38:46.922Z,0.90
2022-11-08T00:39:49.265Z,1.00
2022-11-08T00:40:51.009Z,0.60
2022-11-08T00:41:52.829Z,0.88
2022-11-08T00:42:54.553Z,0.55
2022-11-08T00:43:56.259Z,0.63
2022-11-08T00:44:57.906Z,0.65
2022-11-08T00:45:59.629Z,0.50
2022-11-08T00:47:01.557Z,0.40
2022-11-08T00:48:03.343Z,0.50
2022-11-08T00:49:05.840Z,0.50
2022-11-08T00:50:07.737Z,0.60
2022-11-08T00:51:11.600Z,0.80
2022-11-08T00:52:13.343Z,0.50
2022-11-08T00:53:15.025Z,0.60
2022-11-08T00:54:19.453Z,0.70
2022-11-08T00:55:21.173Z,0.75
2022-11-08T00:56:22.952Z,0.50
2022-11-08T00:57:35.869Z,0.80
2022-11-08T00:58:46.393Z,0.60
2022-11-08T00:59:48.137Z,0.52
2022-11-08T01:00:49.824Z,0.73
2022-11-08T01:01:51.622Z,0.57
2022-11-08T01:03:13.390Z,0.60
2022-11-08T01:04:18.308Z,0.60
2022-11-08T01:05:20.129Z,0.43
2022-11-08T01:06:23.824Z,0.70
2022-11-08T01:07:25.494Z,0.60
2022-11-08T01:08:27.148Z,0.40
2022-11-08T01:09:28.894Z,0.47
2022-11-08T01:10:30.675Z,0.50
2022-11-08T01:11:32.547Z,0.95
2022-11-08T01:12:34.249Z,0.50
2022-11-08T01:13:36.248Z,0.60
2022-11-08T01:14:38.103Z,0.70
2022-11-08T01:15:42.374Z,0.60
2022-11-08T01:16:45.248Z,0.80
2022-11-08T01:17:46.933Z,0.60
2022-11-08T01:18:50.705Z,0.60
2022-11-08T01:19:52.378Z,0.50
2022-11-08T01:20:54.237Z,0.50
2022-11-08T01:21:56.025Z,1.00
2022-11-08T01:22:57.694Z,0.70
2022-11-08T01:23:59.867Z,0.70
2022-11-08T01:25:01.531Z,0.50
2022-11-08T01:26:09.071Z,0.65
2022-11-08T01:27:10.745Z,0.70
2022-11-08T01:28:13.101Z,0.50
2022-11-08T01:29:14.754Z,0.60
2022-11-08T01:30:16.573Z,0.52
2022-11-08T01:31:21.015Z,0.70
2022-11-08T01:32:22.712Z,0.50
2022-11-08T01:33:24.363Z,0.70
2022-11-08T01:34:26.033Z,0.50
2022-11-08T01:35:27.905Z,0.68
2022-11-08T01:36:29.977Z,0.60
2022-11-08T01:37:31.913Z,0.65
2022-11-08T01:38:34.093Z,0.50
2022-11-08T01:39:35.932Z,0.52
2022-11-08T01:40:45.560Z,0.68
2022-11-08T01:41:47.227Z,0.85
2022-11-08T01:42:48.907Z,0.75
2022-11-08T01:43:52.706Z,0.53
2022-11-08T01:45:02.109Z,0.73
2022-11-08T01:46:18.231Z,0.77
2022-11-08T01:47:19.881Z,0.73
2022-11-08T01:48:21.843Z,0.80
2022-11-08T01:49:27.002Z,0.60
2022-11-08T01:50:28.777Z,0.60
2022-11-08T01:51:35.110Z,0.70
2022-11-08T01:52:54.118Z,0.75
2022-11-08T01:53:57.351Z,0.80
2022-11-08T01:55:04.930Z,0.53
2022-11-08T01:56:08.205Z,0.70
2022-11-08T01:57:13.946Z,0.55
2022-11-08T01:58:20.567Z,0.60
2022-11-08T01:59:23.119Z,0.60
2022-11-08T02:00:24.891Z,0.43
2022-11-08T02:01:26.652Z,0.82
2022-11-08T02:02:28.722Z,0.43
2022-11-08T02:03:34.515Z,0.55
2022-11-08T02:04:37.650Z,0.60
2022-11-08T02:05:40.116Z,0.63
2022-11-08T02:06:43.648Z,0.50
2022-11-08T02:07:45.427Z,0.70
2022-11-08T02:08:47.504Z,0.55
2022-11-08T02:09:49.192Z,0.70
2022-11-08T02:10:52.793Z,0.60
2022-11-08T02:11:55.200Z,0.60
2022-11-08T02:12:57.388Z,0.75
2022-11-08T02:13:59.244Z,0.70
2022-11-08T02:15:01.097Z,0.80
2022-11-08T02:16:03.231Z,0.57
2022-11-08T02:17:06.962Z,0.75
2022-11-08T02:18:08.712Z,0.70
2022-11-08T02:19:20.616Z,0.68
2022-11-08T02:20:22.488Z,0.82
2022-11-08T02:21:27.779Z,0.98
2022-11-08T02:22:35.273Z,0.80
2022-11-08T02:23:54.523Z,0.82
2022-11-08T02:24:58.432Z,1.05
2022-11-08T02:26:00.335Z,0.80
2022-11-08T02:27:02.413Z,1.10
2022-11-08T02:28:04.308Z,0.90
2022-11-08T02:29:26.757Z,1.45
2022-11-08T02:30:38.561Z,0.90
2022-11-08T02:31:40.206Z,1.10
2022-11-08T02:32:42.925Z,1.08
2022-11-08T02:33:45.529Z,1.17
2022-11-08T02:34:57.477Z,1.55
2022-11-08T02:35:59.483Z,1.15
2022-11-08T02:37:03.188Z,1.30
2022-11-08T02:38:05.121Z,1.27
2022-11-08T02:39:06.813Z,1.38
2022-11-08T02:40:09.125Z,1.30
2022-11-08T02:41:10.854Z,1.52
2022-11-08T02:42:14.403Z,1.23
2022-11-08T02:43:16.121Z,1.35
2022-11-08T02:44:17.890Z,1.30
2022-11-08T02:45:19.653Z,1.13
2022-11-08T02:46:21.321Z,1.40
2022-11-08T02:47:24.175Z,1.27
2022-11-08T02:48:26.637Z,1.10
2022-11-08T02:49:28.536Z,1.17
2022-11-08T02:50:30.199Z,1.30
2022-11-08T02:51:31.895Z,1.08
2022-11-08T02:52:33.856Z,1.00
2022-11-08T02:53:35.755Z,1.80
2022-11-08T02:54:37.442Z,1.40
2022-11-08T02:55:39.241Z,1.30
2022-11-08T02:56:41.398Z,1.50
2022-11-08T02:57:43.085Z,1.83
2022-11-08T02:58:44.728Z,1.23
2022-11-08T02:59:46.455Z,1.38
2022-11-08T03:00:48.136Z,1.60
2022-11-08T03:01:49.930Z,2.00
2022-11-08T03:02:55.734Z,1.40
2022-11-08T03:03:57.506Z,1.50
2022-11-08T03:04:59.193Z,1.40
2022-11-08T03:06:00.858Z,1.50
2022-11-08T03:07:02.607Z,1.30
2022-11-08T03:08:04.661Z,1.27
2022-11-08T03:09:06.802Z,1.27
2022-11-08T03:10:08.869Z,1.30
2022-11-08T03:11:10.580Z,1.33
2022-11-08T03:12:12.244Z,1.52
2022-11-08T03:13:14.035Z,1.20
2022-11-08T03:14:15.688Z,0.90
2022-11-08T03:15:17.356Z,1.20
2022-11-08T03:16:19.027Z,1.30
2022-11-08T03:17:20.800Z,1.38
2022-11-08T03:18:22.513Z,1.60
2022-11-08T03:19:24.191Z,1.40
2022-11-08T03:20:32.114Z,1.52
2022-11-08T03:21:36.711Z,1.58
2022-11-08T03:22:38.379Z,1.70
2022-11-08T03:23:40.196Z,1.50
2022-11-08T03:24:41.962Z,1.25
2022-11-08T03:25:43.656Z,1.90
2022-11-08T03:26:45.388Z,1.50
2022-11-08T03:27:47.078Z,1.45
2022-11-08T03:28:48.808Z,1.63
2022-11-08T03:29:50.472Z,1.40
2022-11-08T03:30:53.180Z,1.58
2022-11-08T03:31:54.904Z,1.67
2022-11-08T03:32:56.692Z,1.98
2022-11-08T03:33:58.350Z,1.70
2022-11-08T03:35:00.931Z,2.05
2022-11-08T03:36:02.665Z,1.80
2022-11-08T03:37:09.214Z,1.42
2022-11-08T03:38:10.956Z,1.80
2022-11-08T03:39:12.763Z,1.75
2022-11-08T03:40:14.480Z,1.97
2022-11-08T03:41:16.135Z,2.03
2022-11-08T03:42:17.903Z,1.92
2022-11-08T03:43:19.567Z,2.10
2022-11-08T03:44:21.232Z,2.33
2022-11-08T03:45:23.048Z,1.85
2022-11-08T03:46:24.868Z,1.92
2022-11-08T03:47:26.578Z,2.17
2022-11-08T03:48:28.550Z,2.35
2022-11-08T03:49:30.233Z,2.22
2022-11-08T03:50:32.033Z,2.50
2022-11-08T03:51:33.699Z,2.20
2022-11-08T03:52:52.644Z,1.95
2022-11-08T03:53:54.304Z,2.45
2022-11-08T03:54:55.977Z,2.55
2022-11-08T03:56:00.342Z,2.50
2022-11-08T03:57:02.030Z,2.50
2022-11-08T03:58:03.698Z,2.33
2022-11-08T03:59:05.595Z,2.25
2022-11-08T04:00:10.610Z,2.28
2022-11-08T04:01:12.372Z,2.27
2022-11-08T04:02:14.278Z,1.92
2022-11-08T04:03:16.033Z,2.88
2022-11-08T04:04:17.768Z,2.60
2022-11-08T04:05:20.498Z,2.42
2022-11-08T04:06:22.197Z,2.65
2022-11-08T04:07:23.910Z,2.58
2022-11-08T04:08:25.557Z,2.10
2022-11-08T04:09:27.236Z,2.33
2022-11-08T04:10:29.080Z,2.60
2022-11-08T04:11:49.547Z,2.30
2022-11-08T04:13:10.072Z,2.40
2022-11-08T04:14:30.679Z,2.28
2022-11-08T04:15:32.571Z,2.35
2022-11-08T04:16:34.564Z,2.40
2022-11-08T04:17:54.704Z,2.95
2022-11-08T04:19:14.950Z,2.20
2022-11-08T04:20:35.581Z,1.88
2022-11-08T04:21:37.335Z,2.40
2022-11-08T04:22:39.034Z,2.30
2022-11-08T04:23:40.762Z,2.00
2022-11-08T04:24:42.488Z,2.15
2022-11-08T04:25:45.359Z,1.92
2022-11-08T04:26:47.123Z,2.00
2022-11-08T04:27:48.937Z,2.50
2022-11-08T04:28:50.690Z,1.77
2022-11-08T04:29:52.357Z,1.98
2022-11-08T04:30:58.972Z,1.98
2022-11-08T04:32:00.842Z,2.20
2022-11-08T04:33:04.062Z,2.00
2022-11-08T04:34:06.311Z,2.20
2022-11-08T04:35:08.262Z,1.85
2022-11-08T04:36:13.807Z,3.55
2022-11-08T04:37:15.487Z,1.98
2022-11-08T04:38:17.788Z,2.05
2022-11-08T04:39:19.709Z,2.33
2022-11-08T04:40:21.386Z,2.35
2022-11-08T04:41:24.952Z,1.88
2022-11-08T04:42:26.644Z,2.10
2022-11-08T04:43:29.338Z,2.23
2022-11-08T04:44:31.028Z,2.57
2022-11-08T04:45:32.689Z,2.30
2022-11-08T04:46:34.575Z,2.10
2022-11-08T04:47:41.070Z,2.40
2022-11-08T04:48:45.746Z,2.22
2022-11-08T04:49:47.395Z,2.20
2022-11-08T04:50:49.068Z,2.28
2022-11-08T04:51:50.767Z,2.20
2022-11-08T04:52:53.708Z,2.45
2022-11-08T04:53:57.592Z,2.35
2022-11-08T04:54:59.287Z,2.50
2022-11-08T04:56:06.592Z,2.35
2022-11-08T04:57:08.294Z,2.45
2022-11-08T04:58:10.274Z,2.30
2022-11-08T04:59:12.579Z,2.47
2022-11-08T05:00:15.501Z,2.53
2022-11-08T05:01:19.723Z,2.40
2022-11-08T05:02:21.534Z,2.30
2022-11-08T05:03:23.342Z,3.00
2022-11-08T05:04:25.082Z,2.60
2022-11-08T05:05:26.805Z,2.67
2022-11-08T05:06:30.757Z,2.85
2022-11-08T05:07:32.690Z,2.58
2022-11-08T05:08:34.432Z,2.35
2022-11-08T05:09:36.209Z,2.30
2022-11-08T05:10:37.879Z,2.63
2022-11-08T05:11:39.543Z,2.28
2022-11-08T05:12:41.336Z,2.08
2022-11-08T05:13:43.461Z,2.40
2022-11-08T05:14:45.098Z,2.33
2022-11-08T05:15:46.805Z,2.40
2022-11-08T05:16:48.567Z,2.30
2022-11-08T05:17:50.274Z,2.00
2022-11-08T05:18:52.390Z,1.88
2022-11-08T05:20:12.847Z,2.03
2022-11-08T05:21:35.987Z,2.97
2022-11-08T05:22:56.186Z,4.55
2022-11-08T05:23:58.791Z,5.22
2022-11-08T05:25:00.526Z,6.00
2022-11-08T05:26:02.512Z,6.93
2022-11-08T05:27:04.233Z,5.83
2022-11-08T05:28:06.396Z,4.78
2022-11-08T05:29:08.432Z,5.00
2022-11-08T05:30:10.566Z,3.92
2022-11-08T05:31:12.540Z,4.30
2022-11-08T05:32:14.313Z,3.30
2022-11-08T05:33:15.994Z,3.40
2022-11-08T05:34:17.741Z,3.45
2022-11-08T05:35:21.663Z,2.72
2022-11-08T05:36:23.412Z,3.35
2022-11-08T05:37:25.161Z,3.17
2022-11-08T05:38:26.880Z,3.28
2022-11-08T05:39:32.057Z,2.75
2022-11-08T05:40:34.347Z,2.60
2022-11-08T05:41:36.209Z,2.58
2022-11-08T05:42:37.926Z,2.40
2022-11-08T05:43:40.250Z,2.30
2022-11-08T05:44:41.902Z,2.20
2022-11-08T05:45:45.527Z,2.70
2022-11-08T05:46:47.175Z,2.28
2022-11-08T05:47:49.502Z,2.40
2022-11-08T05:48:51.524Z,2.20
2022-11-08T05:49:53.323Z,2.38
2022-11-08T05:50:55.343Z,2.13
2022-11-08T05:51:57.083Z,2.60
2022-11-08T05:52:59.075Z,2.08
2022-11-08T05:54:00.879Z,2.33
2022-11-08T05:55:02.582Z,2.20
2022-11-08T05:56:05.245Z,2.00
2022-11-08T05:57:06.931Z,2.60
2022-11-08T05:58:09.031Z,2.70
2022-11-08T05:59:10.687Z,2.40
2022-11-08T06:00:12.880Z,2.63
2022-11-08T06:01:16.998Z,2.50
2022-11-08T06:02:18.754Z,2.50
2022-11-08T06:03:23.748Z,2.40
2022-11-08T06:04:25.792Z,2.40
2022-11-08T06:05:27.454Z,2.40
2022-11-08T06:06:29.219Z,2.45
2022-11-08T06:07:30.897Z,2.78
2022-11-08T06:08:32.990Z,2.90
2022-11-08T06:09:34.686Z,2.78
2022-11-08T06:10:36.316Z,2.80
2022-11-08T06:11:38.313Z,2.67
2022-11-08T06:12:40.176Z,2.63
2022-11-08T06:13:42.530Z,2.88
2022-11-08T06:14:44.211Z,2.80
2022-11-08T06:15:45.945Z,2.50
2022-11-08T06:16:47.593Z,3.05
2022-11-08T06:17:49.239Z,2.70
2022-11-08T06:18:50.966Z,3.33
2022-11-08T06:19:52.637Z,3.17
2022-11-08T06:20:54.294Z,2.78
2022-11-08T06:21:55.960Z,3.03
2022-11-08T06:22:57.600Z,3.00
2022-11-08T06:23:59.284Z,2.85
2022-11-08T06:25:01.855Z,3.30
2022-11-08T06:26:04.448Z,2.92
2022-11-08T06:27:06.300Z,3.30
2022-11-08T06:28:08.068Z,3.40
2022-11-08T06:29:10.469Z,3.93
2022-11-08T06:30:12.769Z,3.30
2022-11-08T06:31:14.482Z,3.70
2022-11-08T06:32:16.141Z,3.80
2022-11-08T06:33:19.155Z,3.40
2022-11-08T06:34:21.275Z,3.00
2022-11-08T06:35:23.019Z,2.90
2022-11-08T06:36:24.669Z,3.13
2022-11-08T06:37:26.404Z,3.33
2022-11-08T06:38:28.146Z,3.05
2022-11-08T06:39:29.807Z,3.33
2022-11-08T06:40:34.816Z,3.42
2022-11-08T06:41:36.560Z,3.30
2022-11-08T06:42:38.224Z,3.40
2022-11-08T06:43:39.998Z,3.92
2022-11-08T06:44:41.635Z,3.30
2022-11-08T06:45:43.319Z,3.25
2022-11-08T06:46:45.030Z,3.10
2022-11-08T06:47:46.680Z,3.78
2022-11-08T06:48:48.345Z,3.67
2022-11-08T06:49:50.117Z,3.53
2022-11-08T06:50:51.786Z,3.50
2022-11-08T06:51:53.472Z,3.53
2022-11-08T06:53:03.494Z,3.22
2022-11-08T06:54:08.698Z,3.35
2022-11-08T06:55:11.074Z,3.80
2022-11-08T06:56:13.017Z,3.20
2022-11-08T06:57:14.709Z,3.95
2022-11-08T06:58:16.387Z,3.58
2022-11-08T06:59:18.301Z,3.33
2022-11-08T07:00:21.087Z,3.70
2022-11-08T07:01:22.863Z,3.88
2022-11-08T07:02:24.713Z,3.40
2022-11-08T07:03:26.488Z,4.00
2022-11-08T07:04:28.137Z,3.95
2022-11-08T07:05:31.982Z,3.55
2022-11-08T07:06:33.792Z,4.65
2022-11-08T07:07:35.479Z,3.53
2022-11-08T07:08:37.297Z,3.75
2022-11-08T07:09:38.955Z,4.15
2022-11-08T07:10:40.804Z,4.03
2022-11-08T07:11:42.590Z,3.95
2022-11-08T07:12:44.460Z,4.00
2022-11-08T07:13:47.465Z,3.80
2022-11-08T07:14:49.171Z,3.42
2022-11-08T07:15:50.948Z,4.22
2022-11-08T07:16:52.629Z,4.82
2022-11-08T07:17:54.754Z,3.67
2022-11-08T07:18:56.514Z,3.67
2022-11-08T07:19:58.232Z,3.65
2022-11-08T07:21:01.427Z,3.63
2022-11-08T07:22:03.091Z,3.85
2022-11-08T07:23:04.899Z,3.97
2022-11-08T07:24:06.953Z,3.63
2022-11-08T07:25:08.738Z,3.75
2022-11-08T07:26:11.214Z,3.83
2022-11-08T07:27:12.863Z,3.28
2022-11-08T07:28:19.896Z,3.72
2022-11-08T07:29:22.008Z,4.25
2022-11-08T07:30:24.042Z,3.70
2022-11-08T07:31:25.858Z,4.27
2022-11-08T07:32:27.544Z,3.95
2022-11-08T07:33:29.518Z,3.70
2022-11-08T07:34:32.258Z,3.53
2022-11-08T07:35:34.624Z,4.00
2022-11-08T07:36:36.310Z,3.70
2022-11-08T07:37:37.964Z,3.70
2022-11-08T07:38:39.631Z,3.90
2022-11-08T07:39:41.283Z,3.75
2022-11-08T07:40:43.138Z,3.85
2022-11-08T07:41:44.783Z,4.07
2022-11-08T07:44:08.245Z,3.50
2022-11-08T07:45:11.131Z,3.33
2022-11-08T07:46:12.806Z,3.28
2022-11-08T07:47:14.440Z,3.90
2022-11-08T07:48:16.075Z,4.03
2022-11-08T07:49:17.756Z,3.95
2022-11-08T07:50:19.428Z,4.00
2022-11-08T07:51:21.135Z,4.13
2022-11-08T07:52:22.820Z,3.70
2022-11-08T07:53:24.596Z,3.97
2022-11-08T07:54:26.311Z,3.80
2022-11-08T07:55:28.114Z,3.40
2022-11-08T07:56:30.152Z,3.97
2022-11-08T07:57:31.946Z,3.17
2022-11-08T07:58:35.468Z,4.05
2022-11-08T07:59:37.185Z,3.33
2022-11-08T08:00:40.832Z,3.30
2022-11-08T08:01:42.549Z,3.40
2022-11-08T08:02:44.340Z,3.23
2022-11-08T08:03:46.077Z,3.50
2022-11-08T08:04:47.798Z,3.75
2022-11-08T08:05:57.974Z,3.17
2022-11-08T08:07:02.401Z,3.40
2022-11-08T08:08:04.614Z,3.50
2022-11-08T08:09:06.366Z,3.47
2022-11-08T08:10:08.685Z,3.53
2022-11-08T08:11:10.884Z,3.80
2022-11-08T08:12:12.704Z,3.47
2022-11-08T08:13:15.140Z,3.63
2022-11-08T08:14:17.162Z,3.40
2022-11-08T08:15:19.078Z,3.53
2022-11-08T08:16:20.770Z,3.20
2022-11-08T08:17:22.499Z,3.13
2022-11-08T08:18:24.170Z,3.50
2022-11-08T08:19:25.851Z,3.17
2022-11-08T08:20:27.814Z,3.25
2022-11-08T08:21:29.452Z,3.67
2022-11-08T08:22:31.088Z,3.67
2022-11-08T08:23:32.754Z,3.37
2022-11-08T08:24:34.493Z,3.60
2022-11-08T08:25:36.221Z,3.42
2022-11-08T08:26:38.223Z,3.33
2022-11-08T08:27:40.332Z,3.75
2022-11-08T08:28:42.054Z,3.40
2022-11-08T08:29:43.907Z,3.40
2022-11-08T08:30:45.588Z,3.50
2022-11-08T08:31:47.274Z,2.90
2022-11-08T08:33:02.121Z,3.50
2022-11-08T08:34:11.097Z,3.60
2022-11-08T08:35:13.240Z,3.70
2022-11-08T08:36:14.873Z,3.45
2022-11-08T08:37:17.340Z,3.65
2022-11-08T08:38:19.288Z,3.25
2022-11-08T08:39:20.961Z,3.25
2022-11-08T08:40:22.609Z,3.90
2022-11-08T08:41:24.245Z,3.75
2022-11-08T08:42:25.882Z,3.33
2022-11-08T08:43:28.562Z,3.47
2022-11-08T08:44:30.243Z,3.90
2022-11-08T08:45:33.285Z,3.42
2022-11-08T08:46:34.920Z,3.50
2022-11-08T08:47:36.665Z,3.72
2022-11-08T08:48:38.919Z,3.25
2022-11-08T08:49:40.583Z,3.20
2022-11-08T08:50:42.533Z,3.60
2022-11-08T08:51:44.198Z,3.97
2022-11-08T08:52:46.441Z,3.22
2022-11-08T08:53:48.193Z,3.17
2022-11-08T08:54:49.893Z,3.50
2022-11-08T08:55:52.770Z,3.60
2022-11-08T08:56:54.425Z,4.30
2022-11-08T08:57:56.348Z,3.63
2022-11-08T09:01:41.474Z,3.40
2022-11-08T09:02:44.015Z,3.47
2022-11-08T09:03:45.663Z,3.50
2022-11-08T09:04:47.317Z,3.85
2022-11-08T09:05:49.073Z,4.60
2022-11-08T09:06:50.787Z,4.05
2022-11-08T09:07:55.861Z,4.00
2022-11-08T09:08:57.648Z,3.53
2022-11-08T09:09:59.395Z,3.40
2022-11-08T09:11:01.884Z,3.50
2022-11-08T09:12:03.817Z,3.25
2022-11-08T09:13:05.743Z,3.30
2022-11-08T09:14:07.400Z,3.63
2022-11-08T09:15:10.303Z,3.65
2022-11-08T09:16:13.708Z,3.40
2022-11-08T09:17:15.375Z,3.50
2022-11-08T09:18:17.642Z,3.67
2022-11-08T09:19:19.363Z,3.70
2022-11-08T09:20:21.226Z,3.40
2022-11-08T09:21:22.903Z,3.63
2022-11-08T09:22:24.759Z,3.85
2022-11-08T09:23:26.692Z,3.33
2022-11-08T09:24:28.494Z,3.88
2022-11-08T09:25:30.965Z,3.88
2022-11-08T09:26:32.655Z,3.63
2022-11-08T09:27:34.308Z,3.45
2022-11-08T09:28:36.978Z,3.60
2022-11-08T09:29:38.714Z,3.13
2022-11-08T09:30:40.394Z,3.40
2022-11-08T09:31:42.095Z,3.25
2022-11-08T09:33:00.325Z,3.47
2022-11-08T09:35:05.567Z,3.47
2022-11-08T09:36:11.479Z,3.40
2022-11-08T09:37:13.230Z,3.37
2022-11-08T09:38:15.167Z,3.40
2022-11-08T09:39:17.158Z,2.97
2022-11-08T09:40:23.638Z,3.50
2022-11-08T09:41:41.646Z,3.00
2022-11-08T09:43:02.067Z,3.28
2022-11-08T09:44:09.805Z,3.95
2022-11-08T09:45:23.810Z,3.40
2022-11-08T09:46:48.850Z,3.47
2022-11-08T09:47:57.599Z,3.03
2022-11-08T09:49:01.594Z,3.23
2022-11-08T09:50:30.718Z,3.50
2022-11-08T09:51:35.521Z,2.78
2022-11-08T09:52:40.004Z,3.10
2022-11-08T09:53:51.715Z,3.42
2022-11-08T09:55:13.282Z,3.85
2022-11-08T09:56:29.647Z,3.10
2022-11-08T09:57:46.305Z,3.38
2022-11-08T09:58:54.515Z,3.25
2022-11-08T10:00:04.520Z,3.42
2022-11-08T10:01:09.240Z,3.43
2022-11-08T10:02:18.093Z,3.60
2022-11-08T10:03:24.312Z,3.45
2022-11-08T10:04:29.598Z,3.03
2022-11-08T10:05:42.064Z,3.10
2022-11-08T10:06:43.689Z,2.78
2022-11-08T10:08:21.307Z,3.25
2022-11-08T10:09:58.071Z,3.20
2022-11-08T10:11:11.522Z,3.00
2022-11-08T10:12:29.110Z,2.85
2022-11-08T10:13:46.316Z,3.03
2022-11-08T10:14:57.024Z,2.92
2022-11-08T10:16:15.571Z,3.42
2022-11-08T10:17:17.191Z,3.08
2022-11-08T10:18:36.548Z,3.38
2022-11-08T10:19:53.184Z,5.03
2022-11-08T10:21:00.792Z,6.65
2022-11-08T10:22:08.872Z,5.40
2022-11-08T10:23:21.876Z,5.10
2022-11-08T10:24:52.790Z,4.60
2022-11-08T10:25:58.973Z,4.27
2022-11-08T10:27:01.446Z,3.28
2022-11-08T10:28:04.677Z,3.47
2022-11-08T10:29:26.850Z,3.25
2022-11-08T10:30:38.509Z,3.25
2022-11-08T10:31:42.441Z,3.17
2022-11-08T10:32:44.614Z,2.70
2022-11-08T10:33:54.886Z,2.60
2022-11-08T10:35:06.721Z,2.60
2022-11-08T10:36:41.175Z,2.70
2022-11-08T10:37:44.908Z,2.40
2022-11-08T10:39:12.412Z,2.95
2022-11-08T10:40:39.010Z,2.83
2022-11-08T10:41:58.833Z,3.13
2022-11-08T10:43:12.182Z,3.70
2022-11-08T10:44:19.836Z,3.03
2022-11-08T10:45:21.484Z,2.70
2022-11-08T10:46:23.084Z,2.78
2022-11-08T10:47:27.354Z,2.72
2022-11-08T10:48:32.659Z,2.58
2022-11-08T10:49:41.012Z,2.80
2022-11-08T10:50:46.180Z,2.78
2022-11-08T10:51:51.930Z,2.60
2022-11-08T10:53:01.936Z,2.25
2022-11-08T10:55:25.967Z,2.38
2022-11-08T10:56:27.595Z,2.58
2022-11-08T10:57:32.042Z,2.70
2022-11-08T10:58:42.056Z,2.95
2022-11-08T10:59:44.962Z,2.58
2022-11-08T11:01:02.923Z,2.90
2022-11-08T11:02:29.942Z,2.78
2022-11-08T11:03:31.993Z,2.33
2022-11-08T11:04:34.866Z,2.72
2022-11-08T11:06:01.039Z,2.58
2022-11-08T11:07:23.565Z,2.58
2022-11-08T11:08:25.553Z,2.65
2022-11-08T11:09:27.879Z,2.38
2022-11-08T11:10:35.896Z,2.58
2022-11-08T11:11:38.954Z,2.55
2022-11-08T11:12:40.623Z,2.40
2022-11-08T11:13:42.244Z,2.38
2022-11-08T11:14:43.906Z,2.67
2022-11-08T11:15:46.343Z,2.40
2022-11-08T11:16:57.010Z,2.30
2022-11-08T11:17:58.676Z,2.25
2022-11-08T11:19:02.215Z,2.20
2022-11-08T11:20:04.240Z,1.98
2022-11-08T11:21:23.482Z,2.10
2022-11-08T11:22:33.298Z,1.42
2022-11-08T11:23:48.099Z,0.93
2022-11-08T11:24:54.078Z,0.40
2022-11-08T11:25:55.813Z,0.47
2022-11-08T11:26:57.434Z,0.32
2022-11-08T11:28:00.572Z,0.52
2022-11-08T11:29:09.552Z,0.40
2022-11-08T11:30:29.386Z,0.40
2022-11-08T11:31:33.348Z,0.50
2022-11-08T11:32:36.348Z,0.50
2022-11-08T11:33:45.090Z,0.30
2022-11-08T11:34:54.500Z,0.23
2022-11-08T11:36:08.118Z,0.47
2022-11-08T11:37:12.405Z,0.30
2022-11-08T11:38:48.748Z,0.30
2022-11-08T11:40:21.070Z,0.30
2022-11-08T11:41:30.165Z,0.35
2022-11-08T11:42:49.630Z,0.22
2022-11-08T11:44:15.540Z,0.30
2022-11-08T11:45:32.085Z,0.43
2022-11-08T11:46:42.363Z,0.35
2022-11-08T11:47:47.735Z,0.30
2022-11-08T11:48:58.824Z,0.50
2022-11-08T11:50:10.939Z,0.70
2022-11-08T11:51:13.722Z,0.30
2022-11-08T11:52:18.254Z,0.50
2022-11-08T11:53:39.322Z,0.40
2022-11-08T11:54:42.719Z,0.30
2022-11-08T11:55:59.397Z,0.38
2022-11-08T11:57:41.067Z,0.40
2022-11-08T11:58:50.951Z,0.30
2022-11-08T12:00:05.046Z,0.30
2022-11-08T12:01:29.161Z,0.50
2022-11-08T12:02:56.744Z,0.40
2022-11-08T12:04:35.553Z,0.22
2022-11-08T12:05:57.744Z,0.50
2022-11-08T12:07:22.811Z,0.80
2022-11-08T12:08:52.230Z,0.30
2022-11-08T12:10:22.409Z,0.40
2022-11-08T12:11:49.678Z,0.50
2022-11-08T12:13:00.391Z,0.50
2022-11-08T12:14:20.986Z,0.40
2022-11-08T12:15:41.657Z,0.60
2022-11-08T12:17:12.245Z,0.32
2022-11-08T12:18:52.710Z,0.50
2022-11-08T12:20:06.393Z,0.40
2022-11-08T12:21:21.746Z,0.40
2022-11-08T12:22:48.155Z,0.40
2022-11-08T12:24:27.691Z,0.30
2022-11-08T12:25:52.937Z,0.38
2022-11-08T12:27:15.388Z,0.30
2022-11-08T12:28:41.126Z,0.30
2022-11-08T12:29:55.159Z,0.40
2022-11-08T12:31:39.854Z,0.50
2022-11-08T12:33:13.128Z,0.50
2022-11-08T12:34:20.643Z,0.60
2022-11-08T12:35:43.239Z,0.43
2022-11-08T12:37:06.685Z,0.43
2022-11-08T12:38:39.474Z,0.68
2022-11-08T12:39:48.299Z,0.50
2022-11-08T12:41:19.144Z,0.40
2022-11-08T12:42:37.288Z,0.60
2022-11-08T12:44:14.258Z,0.43
2022-11-08T12:45:28.679Z,0.50
2022-11-08T12:46:36.981Z,0.43
2022-11-08T12:47:47.221Z,0.50
2022-11-08T12:49:04.016Z,0.47
2022-11-08T12:50:21.211Z,0.77
2022-11-08T12:51:31.659Z,0.82
2022-11-08T12:53:00.448Z,0.55
2022-11-08T12:54:08.968Z,0.70
2022-11-08T12:55:32.811Z,0.70
2022-11-08T12:56:41.399Z,0.60
2022-11-08T12:57:45.720Z,0.43
2022-11-08T12:58:50.333Z,0.50
2022-11-08T13:00:05.050Z,0.55
2022-11-08T13:01:11.060Z,0.77
2022-11-08T13:02:29.113Z,0.80
2022-11-08T13:03:39.708Z,0.88
2022-11-08T13:04:49.435Z,0.85
2022-11-08T13:06:02.728Z,0.60
2022-11-08T13:07:31.740Z,0.57
2022-11-08T13:08:58.089Z,0.60
2022-11-08T13:10:22.622Z,0.43
2022-11-08T13:11:43.424Z,0.80
2022-11-08T13:13:26.492Z,0.60
2022-11-08T13:14:28.646Z,0.50
2022-11-08T13:15:30.453Z,0.50
2022-11-08T13:16:40.407Z,0.75
2022-11-08T13:18:07.976Z,0.80
2022-11-08T13:19:28.775Z,0.50
2022-11-08T13:20:39.246Z,0.63
2022-11-08T13:21:42.082Z,0.50
2022-11-08T13:22:44.889Z,0.57
2022-11-08T13:23:46.629Z,0.60
2022-11-08T13:24:48.410Z,0.70
2022-11-08T13:25:51.805Z,0.70
2022-11-08T13:27:13.472Z,0.70
2022-11-08T13:28:35.265Z,0.60
2022-11-08T13:29:36.999Z,0.60
2022-11-08T13:30:39.737Z,0.63
2022-11-08T13:31:44.434Z,0.70
2022-11-08T13:33:00.830Z,0.93
2022-11-08T13:34:15.970Z,0.75
2022-11-08T13:35:20.833Z,0.38
2022-11-08T13:36:46.619Z,0.40
2022-11-08T13:38:19.848Z,0.88
2022-11-08T13:39:51.369Z,0.60
2022-11-08T13:41:13.294Z,0.65
2022-11-08T13:42:18.030Z,0.50
2022-11-08T13:43:23.276Z,0.50
2022-11-08T13:44:55.925Z,0.53
2022-11-08T13:46:20.578Z,0.43
2022-11-08T13:47:34.459Z,0.70
2022-11-08T13:48:40.478Z,0.50
2022-11-08T13:49:42.148Z,0.65
2022-11-08T13:50:49.425Z,0.60
2022-11-08T13:52:11.104Z,0.70
2022-11-08T13:53:18.666Z,0.40
2022-11-08T13:54:23.183Z,0.68
2022-11-08T13:55:43.007Z,0.40
2022-11-08T13:56:55.858Z,0.53
2022-11-08T13:58:00.427Z,0.50
2022-11-08T13:59:02.225Z,0.60
2022-11-08T14:00:08.957Z,0.60
2022-11-08T14:01:22.356Z,0.60
2022-11-08T14:02:24.195Z,0.68
2022-11-08T14:03:34.901Z,0.50
2022-11-08T14:04:40.499Z,0.70
2022-11-08T14:05:46.592Z,0.50
2022-11-08T14:07:00.377Z,0.52
2022-11-08T14:08:16.310Z,0.70
2022-11-08T14:09:41.672Z,0.50
2022-11-08T14:11:11.424Z,0.60
2022-11-08T14:12:33.976Z,0.60
2022-11-08T14:13:55.874Z,0.70
2022-11-08T14:15:25.974Z,0.70
2022-11-08T14:16:44.798Z,0.60
2022-11-08T14:17:52.273Z,0.80
2022-11-08T14:18:53.953Z,0.50
2022-11-08T14:20:14.266Z,0.75
2022-11-08T14:21:18.339Z,0.57
2022-11-08T14:22:27.707Z,0.50
2022-11-08T14:23:32.566Z,0.68
2022-11-08T14:24:38.255Z,0.70
2022-11-08T14:25:40.940Z,1.23
2022-11-08T14:26:47.297Z,0.70
2022-11-08T14:27:49.270Z,0.80
2022-11-08T14:28:53.283Z,0.88
2022-11-08T14:30:01.455Z,0.60
2022-11-08T14:31:07.614Z,0.75
2022-11-08T14:32:19.654Z,0.93
2022-11-08T14:33:31.581Z,0.90
2022-11-08T14:34:34.581Z,0.77
2022-11-08T14:35:36.326Z,0.93
2022-11-08T14:36:38.157Z,0.90
2022-11-08T14:37:43.473Z,1.10
2022-11-08T14:39:13.907Z,0.85
2022-11-08T14:40:19.745Z,0.90
2022-11-08T14:41:27.031Z,0.80
2022-11-08T14:42:28.760Z,0.80
2022-11-08T14:43:34.556Z,0.90
2022-11-08T14:44:36.387Z,0.55
2022-11-08T14:45:40.566Z,0.80
2022-11-08T14:46:42.606Z,1.05
2022-11-08T14:47:44.858Z,0.50
2022-11-08T14:48:54.601Z,0.80
2022-11-08T14:49:58.010Z,0.73